createdAt,value
2024-05-09T00:01:49.979Z,12.20
2024-05-09T00:04:17.190Z,12.10
2024-05-09T00:06:44.445Z,12.00
2024-05-09T00:09:11.556Z,12.00
2024-05-09T00:11:38.779Z,11.90
2024-05-09T00:14:06.027Z,11.90
2024-05-09T00:19:17.426Z,11.90
2024-05-09T00:21:44.575Z,11.80
2024-05-09T00:24:11.753Z,11.80
2024-05-09T00:26:38.888Z,11.80
2024-05-09T00:29:06.014Z,11.80
2024-05-09T00:31:33.222Z,11.80
2024-05-09T00:34:00.657Z,11.90
2024-05-09T00:36:28.226Z,11.90
2024-05-09T00:38:55.290Z,11.90
2024-05-09T00:41:22.400Z,11.90
2024-05-09T00:43:49.693Z,11.90
2024-05-09T00:46:16.866Z,11.90
2024-05-09T00:48:44.207Z,11.90
2024-05-09T00:51:11.480Z,11.90
2024-05-09T00:53:39.166Z,11.80
2024-05-09T00:58:51.804Z,11.80
2024-05-09T01:01:22.978Z,11.80
2024-05-09T01:03:51.402Z,11.70
2024-05-09T01:09:04.766Z,11.60
2024-05-09T01:11:50.213Z,11.50
2024-05-09T01:14:17.464Z,11.60
2024-05-09T01:16:44.698Z,11.50
2024-05-09T01:19:16.916Z,11.50
2024-05-09T01:27:12.797Z,11.50
2024-05-09T01:32:24.171Z,11.50
2024-05-09T01:34:51.498Z,11.50
2024-05-09T01:42:47.314Z,11.50
2024-05-09T01:45:14.498Z,11.50
2024-05-09T01:47:41.985Z,11.40
2024-05-09T01:50:11.015Z,11.40
2024-05-09T01:55:24.914Z,11.40
2024-05-09T01:57:52.902Z,11.40
2024-05-09T02:00:30.210Z,11.40
2024-05-09T02:03:04.971Z,11.30
2024-05-09T02:05:32.601Z,11.30
2024-05-09T02:07:59.978Z,11.30
2024-05-09T02:10:32.348Z,11.30
2024-05-09T02:15:45.100Z,11.20
2024-05-09T02:18:13.227Z,11.20
2024-05-09T02:20:42.052Z,11.10
2024-05-09T02:23:10.228Z,11.10
2024-05-09T02:25:37.670Z,11.00
2024-05-09T02:28:04.909Z,11.00
2024-05-09T02:30:39.577Z,11.00
2024-05-09T02:35:53.638Z,10.90
2024-05-09T02:41:05.210Z,10.80
2024-05-09T02:43:32.289Z,10.80
2024-05-09T02:48:43.696Z,10.90
2024-05-09T02:53:55.282Z,11.00
2024-05-09T02:56:22.740Z,10.90
2024-05-09T02:58:50.055Z,11.00
2024-05-09T03:01:17.644Z,11.00
2024-05-09T03:03:48.998Z,11.00
2024-05-09T03:06:16.327Z,11.00
2024-05-09T03:11:35.036Z,11.00
2024-05-09T03:14:02.748Z,11.00
2024-05-09T03:16:30.153Z,11.00
2024-05-09T03:18:57.510Z,11.00
2024-05-09T03:21:24.524Z,11.00
2024-05-09T03:23:51.656Z,11.00
2024-05-09T03:26:18.972Z,11.00
2024-05-09T03:28:46.362Z,11.00
2024-05-09T03:31:14.547Z,11.00
2024-05-09T03:33:42.021Z,11.00
2024-05-09T03:36:11.292Z,11.10
2024-05-09T03:38:41.760Z,11.10
2024-05-09T03:41:09.585Z,11.10
2024-05-09T03:43:36.642Z,11.10
2024-05-09T03:48:48.230Z,11.20
2024-05-09T03:51:15.582Z,11.20
2024-05-09T03:53:42.757Z,11.20
2024-05-09T03:56:10.100Z,11.30
2024-05-09T03:58:37.914Z,11.30
2024-05-09T04:01:05.328Z,11.40
2024-05-09T04:03:34.090Z,11.40
2024-05-09T04:06:02.520Z,11.50
2024-05-09T04:08:29.661Z,11.50
2024-05-09T04:10:56.831Z,11.50
2024-05-09T04:13:23.981Z,11.70
2024-05-09T04:15:51.177Z,11.70
2024-05-09T04:18:18.450Z,11.90
2024-05-09T04:20:46.645Z,12.00
2024-05-09T04:23:14.894Z,12.10
2024-05-09T04:25:44.071Z,12.30
2024-05-09T04:30:55.793Z,12.70
2024-05-09T04:33:23.201Z,12.90
2024-05-09T04:35:50.589Z,13.10
2024-05-09T04:38:17.750Z,13.20
2024-05-09T04:40:44.951Z,13.40
2024-05-09T04:43:16.523Z,13.60
2024-05-09T04:45:43.563Z,13.70
2024-05-09T04:48:11.122Z,13.70
2024-05-09T04:50:39.708Z,13.70
2024-05-09T04:55:51.973Z,14.30
2024-05-09T04:58:19.132Z,14.90
2024-05-09T05:00:46.302Z,15.50
2024-05-09T05:03:15.742Z,16.10
2024-05-09T05:05:45.598Z,16.50
2024-05-09T05:08:17.938Z,17.00
2024-05-09T05:10:47.076Z,17.60
2024-05-09T05:13:23.053Z,17.90
2024-05-09T05:18:36.740Z,18.20
2024-05-09T05:21:04.041Z,18.40
2024-05-09T05:23:31.239Z,18.50
2024-05-09T05:25:58.497Z,18.60
2024-05-09T05:28:25.719Z,18.80
2024-05-09T05:30:52.889Z,19.10
2024-05-09T05:33:20.446Z,19.30
2024-05-09T05:38:32.710Z,19.50
2024-05-09T05:46:28.488Z,18.70
2024-05-09T05:48:55.713Z,19.00
2024-05-09T05:51:22.897Z,19.00
2024-05-09T05:53:50.302Z,19.10
2024-05-09T05:56:17.569Z,19.10
2024-05-09T05:58:44.743Z,19.20
2024-05-09T06:01:11.969Z,18.80
2024-05-09T06:03:39.668Z,18.30
2024-05-09T06:06:07.031Z,18.00
2024-05-09T06:08:34.310Z,17.80
2024-05-09T06:11:01.892Z,17.60
2024-05-09T06:16:13.807Z,17.20
2024-05-09T06:18:41.126Z,16.90
2024-05-09T06:21:08.650Z,16.70
2024-05-09T06:26:20.797Z,16.40
2024-05-09T06:28:47.996Z,16.10
2024-05-09T06:31:15.103Z,15.80
2024-05-09T06:36:26.629Z,15.50
2024-05-09T06:38:53.740Z,15.40
2024-05-09T06:41:20.937Z,15.70
2024-05-09T06:46:32.294Z,16.10
2024-05-09T06:51:49.154Z,16.50
2024-05-09T06:54:16.373Z,16.60
2024-05-09T06:56:43.758Z,16.90
2024-05-09T06:59:11.064Z,17.00
2024-05-09T07:01:38.303Z,17.50
2024-05-09T07:04:05.735Z,18.10
2024-05-09T07:06:32.950Z,18.30
2024-05-09T07:09:00.175Z,18.20
2024-05-09T07:11:27.407Z,18.10
2024-05-09T07:13:54.520Z,17.90
2024-05-09T07:16:21.630Z,17.70
2024-05-09T07:18:54.940Z,17.30
2024-05-09T07:21:22.329Z,16.80
2024-05-09T07:26:33.394Z,16.20
2024-05-09T07:29:00.536Z,16.40
2024-05-09T07:31:30.658Z,16.70
2024-05-09T07:33:57.881Z,16.90
2024-05-09T07:36:25.136Z,17.00
2024-05-09T07:38:52.514Z,17.00
2024-05-09T07:41:19.794Z,17.00
2024-05-09T07:43:46.906Z,16.90
2024-05-09T07:53:49.102Z,17.30
2024-05-09T07:59:04.315Z,17.50
2024-05-09T08:04:15.962Z,17.80
2024-05-09T08:09:27.325Z,18.40
2024-05-09T08:11:54.591Z,18.60
2024-05-09T08:14:21.810Z,18.90
2024-05-09T08:16:48.886Z,19.00
2024-05-09T08:19:16.053Z,18.80
2024-05-09T08:21:43.216Z,18.50
2024-05-09T08:24:10.706Z,18.60
2024-05-09T08:29:22.530Z,19.20
2024-05-09T08:31:49.716Z,18.80
2024-05-09T08:34:17.025Z,19.10
2024-05-09T08:36:44.486Z,19.20
2024-05-09T08:39:11.643Z,19.40
2024-05-09T08:41:41.629Z,19.60
2024-05-09T08:46:54.076Z,20.10
2024-05-09T08:49:22.003Z,20.30
2024-05-09T08:51:49.044Z,19.80
2024-05-09T08:54:17.925Z,19.80
2024-05-09T08:56:46.255Z,19.60
2024-05-09T09:05:04.547Z,19.10
2024-05-09T09:07:33.589Z,19.10
2024-05-09T09:10:03.227Z,19.10
2024-05-09T09:12:32.467Z,19.30
2024-05-09T09:14:59.618Z,18.80
2024-05-09T09:17:26.786Z,18.50
2024-05-09T09:19:53.988Z,18.10
2024-05-09T09:22:22.125Z,18.30
2024-05-09T09:24:49.384Z,18.30
2024-05-09T09:27:16.629Z,18.70
2024-05-09T09:29:43.788Z,19.10
2024-05-09T09:32:11.552Z,19.50
2024-05-09T09:34:38.760Z,19.50
2024-05-09T09:37:07.500Z,19.10
2024-05-09T09:42:22.903Z,18.70
2024-05-09T09:44:58.213Z,18.80
2024-05-09T09:47:32.678Z,19.10
2024-05-09T09:50:00.520Z,19.60
2024-05-09T09:52:28.714Z,19.90
2024-05-09T09:54:57.381Z,20.00
2024-05-09T09:57:24.738Z,19.80
2024-05-09T09:59:52.969Z,19.40
2024-05-09T10:02:20.352Z,19.10
2024-05-09T10:04:48.175Z,18.80
2024-05-09T10:07:16.340Z,18.60
2024-05-09T10:09:43.538Z,18.40
2024-05-09T10:12:11.296Z,18.00
2024-05-09T10:14:45.563Z,17.80
2024-05-09T10:17:12.596Z,17.90
2024-05-09T10:19:39.717Z,18.00
2024-05-09T10:24:54.365Z,18.30
2024-05-09T10:27:30.391Z,18.60
2024-05-09T10:29:58.526Z,18.90
2024-05-09T10:35:12.475Z,19.40
2024-05-09T10:43:09.256Z,20.60
2024-05-09T10:45:36.377Z,20.80
2024-05-09T10:48:03.754Z,21.00
2024-05-09T10:50:34.190Z,21.10
2024-05-09T10:53:02.758Z,21.40
2024-05-09T10:55:29.913Z,21.50
2024-05-09T10:57:57.016Z,21.50
2024-05-09T11:00:33.795Z,21.00
2024-05-09T11:03:03.410Z,20.70
2024-05-09T11:05:30.659Z,20.20
2024-05-09T11:07:58.117Z,20.00
2024-05-09T11:10:33.342Z,20.10
2024-05-09T11:13:01.493Z,20.40
2024-05-09T11:15:57.994Z,20.50
2024-05-09T11:18:27.144Z,20.50
2024-05-09T11:20:56.501Z,20.30
2024-05-09T11:23:26.296Z,20.40
2024-05-09T11:31:22.723Z,20.20
2024-05-09T11:33:50.163Z,19.50
2024-05-09T11:36:17.403Z,19.00
2024-05-09T11:38:44.563Z,18.60
2024-05-09T11:41:20.384Z,18.40
2024-05-09T11:43:47.481Z,18.10
2024-05-09T11:46:14.819Z,18.00
2024-05-09T11:48:42.520Z,18.40
2024-05-09T11:51:09.663Z,18.70
2024-05-09T11:53:36.786Z,19.00
2024-05-09T11:56:04.099Z,19.40
2024-05-09T12:01:21.025Z,20.10
2024-05-09T12:03:50.071Z,20.30
2024-05-09T12:06:17.764Z,20.40
2024-05-09T12:11:29.399Z,20.40
2024-05-09T12:13:56.550Z,20.40
2024-05-09T12:16:24.033Z,20.60
2024-05-09T12:18:51.657Z,20.20
2024-05-09T12:21:18.839Z,20.20
2024-05-09T12:23:45.853Z,20.00
2024-05-09T12:31:41.511Z,19.80
2024-05-09T12:34:08.635Z,19.80
2024-05-09T12:36:36.347Z,19.80
2024-05-09T12:39:06.176Z,19.40
2024-05-09T12:41:33.241Z,19.60
2024-05-09T12:44:00.224Z,19.80
2024-05-09T12:46:27.715Z,20.00
2024-05-09T12:48:55.077Z,20.00
2024-05-09T12:51:22.895Z,20.10
2024-05-09T12:53:50.081Z,20.20
2024-05-09T12:59:01.715Z,20.40
2024-05-09T13:01:28.848Z,20.40
2024-05-09T13:03:56.136Z,20.30
2024-05-09T13:06:23.556Z,20.30
2024-05-09T13:08:50.810Z,19.90
2024-05-09T13:14:03.706Z,19.50
2024-05-09T13:16:30.872Z,19.80
2024-05-09T13:18:57.989Z,20.10
2024-05-09T13:21:25.227Z,20.30
2024-05-09T13:23:52.304Z,20.30
2024-05-09T13:29:03.631Z,20.50
2024-05-09T13:31:30.896Z,20.30
2024-05-09T13:33:58.334Z,19.80
2024-05-09T13:36:25.558Z,19.50
2024-05-09T13:38:52.608Z,19.20
2024-05-09T13:44:03.975Z,18.90
2024-05-09T13:46:31.412Z,18.80
2024-05-09T13:48:58.714Z,18.90
2024-05-09T13:51:25.824Z,19.20
2024-05-09T13:53:53.069Z,19.50
2024-05-09T13:56:20.198Z,19.60
2024-05-09T13:58:47.316Z,19.70
2024-05-09T14:01:14.564Z,19.50
2024-05-09T14:03:42.053Z,19.50
2024-05-09T14:06:12.972Z,19.40
2024-05-09T14:11:24.979Z,19.40
2024-05-09T14:13:52.158Z,19.70
2024-05-09T14:16:19.191Z,20.10
2024-05-09T14:18:46.325Z,20.20
2024-05-09T14:21:13.483Z,20.70
2024-05-09T14:23:40.611Z,21.00
2024-05-09T14:26:07.688Z,21.30
2024-05-09T14:28:34.950Z,21.60
2024-05-09T14:33:46.801Z,21.40
2024-05-09T14:36:14.254Z,21.40
2024-05-09T14:38:41.333Z,21.50
2024-05-09T14:41:10.134Z,21.40
2024-05-09T14:43:37.335Z,21.30
2024-05-09T14:46:04.776Z,21.20
2024-05-09T14:48:32.465Z,21.20
2024-05-09T14:50:59.637Z,21.00
2024-05-09T14:53:28.361Z,21.10
2024-05-09T14:55:55.723Z,21.20
2024-05-09T14:58:24.065Z,21.20
2024-05-09T15:03:36.891Z,21.40
2024-05-09T15:06:05.255Z,21.40
2024-05-09T15:08:32.489Z,21.00
2024-05-09T15:13:43.885Z,20.70
2024-05-09T15:16:11.484Z,20.60
2024-05-09T15:18:40.013Z,20.50
2024-05-09T15:21:08.815Z,20.50
2024-05-09T15:23:35.972Z,20.60
2024-05-09T15:26:03.808Z,20.80
2024-05-09T15:28:31.476Z,20.90
2024-05-09T15:30:59.297Z,20.80
2024-05-09T15:33:28.053Z,20.80
2024-05-09T15:35:55.252Z,20.70
2024-05-09T15:38:22.354Z,20.70
2024-05-09T15:40:49.700Z,20.60
2024-05-09T15:43:17.197Z,20.50
2024-05-09T15:48:29.124Z,20.40
2024-05-09T15:50:56.303Z,20.50
2024-05-09T15:53:23.528Z,20.40
2024-05-09T15:55:50.639Z,20.30
2024-05-09T15:58:17.881Z,20.10
2024-05-09T16:00:46.981Z,20.00
2024-05-09T16:03:16.042Z,20.10
2024-05-09T16:05:44.841Z,20.10
2024-05-09T16:10:57.173Z,20.40
2024-05-09T16:13:24.623Z,20.40
2024-05-09T16:15:53.287Z,20.20
2024-05-09T16:21:06.099Z,20.00
2024-05-09T16:23:33.129Z,19.90
2024-05-09T16:26:00.385Z,19.90
2024-05-09T16:28:27.548Z,20.10
2024-05-09T16:30:54.635Z,20.60
2024-05-09T16:33:24.114Z,21.60
2024-05-09T16:35:52.049Z,22.70
2024-05-09T16:38:19.407Z,23.30
2024-05-09T16:40:47.367Z,23.40
2024-05-09T16:43:14.631Z,24.00
2024-05-09T16:45:45.174Z,24.20
2024-05-09T16:50:57.574Z,25.10
2024-05-09T16:53:26.114Z,25.50
2024-05-09T16:55:53.396Z,25.90
2024-05-09T16:58:20.782Z,26.20
2024-05-09T17:00:48.095Z,26.40
2024-05-09T17:03:16.104Z,26.50
2024-05-09T17:05:46.596Z,26.40
2024-05-09T17:08:15.369Z,26.20
2024-05-09T17:10:42.695Z,26.50
2024-05-09T17:13:10.448Z,26.50
2024-05-09T17:15:37.925Z,26.50
2024-05-09T17:18:05.630Z,26.50
2024-05-09T17:20:35.901Z,26.40
2024-05-09T17:23:05.713Z,26.60
2024-05-09T17:28:17.855Z,26.40
2024-05-09T17:33:29.685Z,25.20
2024-05-09T17:35:57.132Z,23.80
2024-05-09T17:38:24.273Z,22.60
2024-05-09T17:40:52.579Z,21.70
2024-05-09T17:43:19.729Z,20.90
2024-05-09T17:48:31.492Z,19.70
2024-05-09T17:50:58.890Z,19.10
2024-05-09T17:53:26.004Z,18.60
2024-05-09T17:58:40.723Z,17.90
2024-05-09T18:01:07.948Z,17.60
2024-05-09T18:03:35.330Z,17.40
2024-05-09T18:06:02.650Z,17.20
2024-05-09T18:08:29.755Z,17.00
2024-05-09T18:10:56.871Z,16.80
2024-05-09T18:13:24.234Z,16.70
2024-05-09T18:15:51.746Z,16.50
2024-05-09T18:18:19.051Z,16.30
2024-05-09T18:20:46.684Z,16.20
2024-05-09T18:23:17.182Z,16.00
2024-05-09T18:25:45.785Z,15.80
2024-05-09T18:28:13.296Z,15.70
2024-05-09T18:30:41.455Z,15.50
2024-05-09T18:33:12.178Z,15.40
2024-05-09T18:35:41.346Z,15.20
2024-05-09T18:38:09.093Z,15.10
2024-05-09T18:40:38.133Z,14.90
2024-05-09T18:43:08.143Z,14.80
2024-05-09T18:45:39.894Z,14.70
2024-05-09T18:50:52.390Z,14.40
2024-05-09T18:53:19.629Z,14.30
2024-05-09T18:55:46.746Z,14.10
2024-05-09T19:01:00.821Z,14.10
2024-05-09T19:03:28.996Z,14.00
2024-05-09T19:05:56.385Z,13.90
2024-05-09T19:11:08.182Z,13.60
2024-05-09T19:13:35.383Z,13.60
2024-05-09T19:16:02.607Z,13.50
2024-05-09T19:18:31.498Z,13.50
2024-05-09T19:20:59.192Z,13.50
2024-05-09T19:23:26.645Z,13.40
2024-05-09T19:25:53.952Z,13.40
2024-05-09T19:28:21.253Z,13.20
2024-05-09T19:30:48.345Z,13.20
2024-05-09T19:33:15.620Z,13.10
2024-05-09T19:35:43.274Z,13.00
2024-05-09T19:40:55.841Z,13.00
2024-05-09T19:43:23.348Z,12.90
2024-05-09T19:45:50.560Z,12.90
2024-05-09T19:48:17.808Z,12.80
2024-05-09T19:50:46.185Z,12.70
2024-05-09T19:53:14.174Z,12.60
2024-05-09T20:01:11.098Z,12.40
2024-05-09T20:03:38.487Z,12.30
2024-05-09T20:06:05.725Z,12.30
2024-05-09T20:11:17.113Z,12.30
2024-05-09T20:13:44.261Z,12.20
2024-05-09T20:16:12.185Z,12.10
2024-05-09T20:21:25.764Z,11.90
2024-05-09T20:23:52.904Z,11.90
2024-05-09T20:26:20.023Z,11.70
2024-05-09T20:28:47.139Z,11.60
2024-05-09T20:31:19.304Z,11.60
2024-05-09T20:33:46.743Z,11.60
2024-05-09T20:36:14.111Z,11.60
2024-05-09T20:38:41.293Z,11.50
2024-05-09T20:41:08.407Z,11.40
2024-05-09T20:43:35.559Z,11.40
2024-05-09T20:46:03.686Z,11.40
2024-05-09T20:48:31.002Z,11.30
2024-05-09T20:50:58.224Z,11.20
2024-05-09T20:53:25.301Z,11.20
2024-05-09T20:58:37.239Z,11.10
2024-05-09T21:01:04.425Z,11.10
2024-05-09T21:03:32.941Z,11.00
2024-05-09T21:06:00.189Z,11.00
2024-05-09T21:08:27.280Z,10.90
2024-05-09T21:10:54.470Z,10.80
2024-05-09T21:13:21.855Z,10.70
2024-05-09T21:15:49.160Z,10.70
2024-05-09T21:18:16.409Z,10.70
2024-05-09T21:20:43.591Z,10.60
2024-05-09T21:23:10.726Z,10.60
2024-05-09T21:25:37.911Z,10.50
2024-05-09T21:28:05.185Z,10.50
2024-05-09T21:30:40.962Z,10.40
2024-05-09T21:33:12.451Z,10.40
2024-05-09T21:35:41.620Z,10.40
2024-05-09T21:38:08.725Z,10.40
2024-05-09T21:40:37.466Z,10.30
2024-05-09T21:45:49.610Z,10.10
2024-05-09T21:48:16.912Z,10.00
2024-05-09T21:53:29.414Z,9.90
2024-05-09T22:06:53.598Z,9.60
2024-05-09T22:09:20.815Z,9.40
2024-05-09T22:11:49.523Z,9.40
2024-05-09T22:14:21.603Z,9.30
2024-05-09T22:16:49.016Z,9.30
2024-05-09T22:19:16.160Z,9.20
2024-05-09T22:21:43.369Z,9.10
2024-05-09T22:26:55.763Z,9.00
2024-05-09T22:29:22.894Z,9.00
2024-05-09T22:31:49.953Z,9.00
2024-05-09T22:34:17.246Z,9.00
2024-05-09T22:36:44.550Z,8.90
2024-05-09T22:39:11.571Z,8.90
2024-05-09T22:47:07.609Z,8.80
2024-05-09T22:49:34.772Z,8.80
2024-05-09T22:52:01.973Z,8.70
2024-05-09T22:54:29.183Z,8.70
2024-05-09T22:56:56.263Z,8.70
2024-05-09T22:59:23.313Z,8.60
2024-05-09T23:01:50.564Z,8.60
2024-05-09T23:04:18.122Z,8.60
2024-05-09T23:06:45.276Z,8.60
2024-05-09T23:11:56.840Z,8.60
2024-05-09T23:14:24.016Z,8.60
2024-05-09T23:16:51.085Z,8.50
2024-05-09T23:19:18.180Z,8.50
2024-05-09T23:24:30.200Z,8.50
2024-05-09T23:26:57.633Z,8.50
2024-05-09T23:29:24.787Z,8.50
2024-05-09T23:31:51.844Z,8.40
2024-05-09T23:34:19.092Z,8.40
2024-05-09T23:39:30.670Z,8.30
2024-05-09T23:41:57.860Z,8.30
2024-05-09T23:44:24.962Z,8.20
2024-05-09T23:49:36.372Z,8.20
2024-05-09T23:52:03.579Z,8.20
2024-05-09T23:54:30.746Z,8.20
2024-05-09T23:56:57.919Z,8.10
2024-05-09T23:59:25.005Z,8.10
